Historique des mesures à Cassis (13260), France
Quotidien Résumé Fevrier 13, 2018 Unités:  Métrique/US    US   Métrique
« Précédent (Jour)
Suivant (Jour) »
Quotidien Hebdomadaire Mensuel Annuel Période au choix
  Maximum: Minimum: Moyenne:
Température: TemperatureC °F /  -17.8 °C 3.1 °F /  -16.1 °C 5.7 °F /  -14.6 °C
Point de rosée: DewpointC °F /  -17.8 °C -7.8 °F /  -22.1 °C -5.2 °F /  -20.7 °C
Humidité: Humidity % 35 % 42 %
Vitesse du vent: WindSpeedKMH mph /  0 km/h - 5.3 mph /  8.5 km/h
Rafales: WindSpeedGustKMH mph /  0 km/h - -
Vent:- - WSW
Pression: PressurehPa in /  0 hPa 1007.7 in /  34120.7 hPa -
Précipitations: 0.0 in /  0 mm    
Historical Graphs
 
 
Mesures pour : Fevrier 13, 2018
Heure Temperature Point de rosée Pression Vent Vitesse du vent Rafales Humidité Pluie (par heure) Conditions
TemperatureC °F /  -17.8 °C DewpointC °F /  -17.8 °C PressurehPa in /  0 hPa Calm     Humidity % HourlyPrecipMM in /  0 mm SoftwareType W/m2
00:12 4.4 °F /  -15.3 °C -4.9 °F /  -20.5 °C 1009.7 in /  34188.4 hPa NW 15.8 mph /  25.4 km/h 15.8 mph /  25.4 km/h 51 % 0.0 in /  0 mm open2300-1.11 W/m2
01:12 4.1 °F /  -15.5 °C -4.9 °F /  -20.5 °C 1009.7 in /  34188.4 hPa WNW 15.8 mph /  25.4 km/h 18.3 mph /  29.5 km/h 52 % 0.0 in /  0 mm open2300-1.11 W/m2
02:12 3.3 °F /  -15.9 °C -5.2 °F /  -20.7 °C 1010.0 in /  34198.6 hPa Calm   4.7 mph /  7.6 km/h 54 % 0.0 in /  0 mm open2300-1.11 W/m2
03:12 3.1 °F /  -16.1 °C -5.8 °F /  -21 °C 1009.7 in /  34188.4 hPa WNW 12.2 mph /  19.6 km/h 15.8 mph /  25.4 km/h 52 % 0.0 in /  0 mm open2300-1.11 W/m2
04:12 4.1 °F /  -15.5 °C -6.9 °F /  -21.6 °C 1009.7 in /  34188.4 hPa NNW 4.0 mph /  6.4 km/h 7.2 mph /  11.6 km/h 45 % 0.0 in /  0 mm open2300-1.11 W/m2
05:12 4.3 °F /  -15.4 °C -7.3 °F /  -21.8 °C 1009.7 in /  34188.4 hPa WNW 6.1 mph /  9.8 km/h 18.0 mph /  29 km/h 43 % 0.0 in /  0 mm open2300-1.11 W/m2
06:12 4.1 °F /  -15.5 °C -7.4 °F /  -21.9 °C 1010.0 in /  34198.6 hPa NNW 1.4 mph /  2.3 km/h 3.2 mph /  5.1 km/h 43 % 0.0 in /  0 mm open2300-1.11 W/m2
07:12 3.8 °F /  -15.7 °C -7.7 °F /  -22.1 °C 1010.0 in /  34198.6 hPa NW 4.3 mph /  6.9 km/h 4.3 mph /  6.9 km/h 43 % 0.0 in /  0 mm open2300-1.11 W/m2
08:12 3.1 °F /  -16.1 °C -7.8 °F /  -22.1 °C 1010.7 in /  34222.3 hPa North 1.4 mph /  2.3 km/h 4.0 mph /  6.4 km/h 45 % 0.0 in /  0 mm open2300-1.11 W/m2
09:12 5.3 °F /  -14.8 °C -6.7 °F /  -21.5 °C 1011.1 in /  34235.8 hPa Calm   3.5 mph /  5.6 km/h 42 % 0.0 in /  0 mm open2300-1.11 W/m2
10:12 5.6 °F /  -14.7 °C -6.9 °F /  -21.6 °C 1010.7 in /  34222.3 hPa North 4.3 mph /  6.9 km/h 16.3 mph /  26.2 km/h 40 % 0.0 in /  0 mm open2300-1.11 W/m2
11:12 8.1 °F /  -13.3 °C -4.4 °F /  -20.2 °C 1011.1 in /  34235.8 hPa ESE 3.2 mph /  5.1 km/h 6.4 mph /  10.3 km/h 41 % 0.0 in /  0 mm open2300-1.11 W/m2
12:12 9.5 °F /  -12.5 °C -3.8 °F /  -19.9 °C 1010.7 in /  34222.3 hPa Calm   6.8 mph /  10.9 km/h 39 % 0.0 in /  0 mm open2300-1.11 W/m2
13:12 9.6 °F /  -12.4 °C -3.7 °F /  -19.8 °C 1009.7 in /  34188.4 hPa South 6.1 mph /  9.8 km/h 7.2 mph /  11.6 km/h 39 % 0.0 in /  0 mm open2300-1.11 W/m2
14:12 8.2 °F /  -13.2 °C -4.3 °F /  -20.2 °C 1009.7 in /  34188.4 hPa NW 25.3 mph /  40.7 km/h 25.3 mph /  40.7 km/h 41 % 0.0 in /  0 mm open2300-1.11 W/m2
15:12 8.5 °F /  -13.1 °C -4.3 °F /  -20.2 °C 1009.0 in /  34164.7 hPa North 1.8 mph /  2.9 km/h 8.7 mph /  14 km/h 40 % 0.0 in /  0 mm open2300-1.11 W/m2
16:12 8.3 °F /  -13.2 °C -6.4 °F /  -21.3 °C 1009.0 in /  34164.7 hPa West 9.0 mph /  14.5 km/h 9.3 mph /  15 km/h 35 % 0.0 in /  0 mm open2300-1.11 W/m2
17:12 7.8 °F /  -13.4 °C -3.8 °F /  -19.9 °C 1009.4 in /  34178.3 hPa Calm     44 % 0.0 in /  0 mm open2300-1.11 W/m2
18:12 7.4 °F /  -13.7 °C -3.6 °F /  -19.8 °C 1008.4 in /  34144.4 hPa Calm     46 % 0.0 in /  0 mm open2300-1.11 W/m2
19:12 7.3 °F /  -13.7 °C -4.2 °F /  -20.1 °C 1009.0 in /  34164.7 hPa NNW 1.4 mph /  2.3 km/h 2.1 mph /  3.4 km/h 44 % 0.0 in /  0 mm open2300-1.11 W/m2
20:12 6.5 °F /  -14.2 °C -4.3 °F /  -20.2 °C 1008.4 in /  34144.4 hPa Calm     46 % 0.0 in /  0 mm open2300-1.11 W/m2
21:12 6.1 °F /  -14.4 °C -5.0 °F /  -20.6 °C 1007.7 in /  34120.7 hPa Calm   1.4 mph /  2.3 km/h 45 % 0.0 in /  0 mm open2300-1.11 W/m2
22:12 5.9 °F /  -14.5 °C -4.9 °F /  -20.5 °C 1007.7 in /  34120.7 hPa WNW 14.0 mph /  22.5 km/h 14.0 mph /  22.5 km/h 46 % 0.0 in /  0 mm open2300-1.11 W/m2
23:12 5.3 °F /  -14.8 °C -5.8 °F /  -21 °C 1007.7 in /  34120.7 hPa NNW 7.2 mph /  11.6 km/h 12.2 mph /  19.6 km/h 45 % 0.0 in /  0 mm open2300-1.11 W/m2
Observations météo à CASSIS
WU-History script by Weather Underground - 1 mb